Airfield :
LOGIN :

Register | Disclaimer

   EN    FR    IT 

 










Legend :    VFR   Marginal VFR   IFR   Intensive IFR   Very Intensive IFR
Visi :
Ceiling :
>= 8 km
>= 3000ft
5 to 8 km
1000 to 3000 ft
1500m to 5 km
500 to 1000 ft
800 to 1500m
200 to 500 ft
< 800m
< 200 ft
Symbols :   Thunderstorms  Fog  Heavy snow  Heavy precipitations  Wind > 20 kt
SIGMETs :     Misc.  Thunderstorms  Icing  Turbulence  Mountain Waves  Volcanic Ashes







- Airport Elevation : 202 ft
- IATA code : LGW
- Download approach charts


EGKK - London Gatwick

CURRENT METAR :
  • 210820Z VRB01KT 4000 BCFG NSC 09/08 Q1028

EXPIRED METARs :
  • 210750Z 19001KT 4000 BCFG NSC 08/08 Q1029
  • 210720Z VRB02KT 3000 BCFG NSC 06/06 Q1028
  • 210650Z 21001KT 9999 2500W BCFG NSC 06/06 Q1028
  • 210620Z VRB02KT 3000 BCFG NSC 06/05 Q1028
  • 210550Z 18001KT 2400 BR NSC 06/06 Q1028

TAF AMD TAF EGKK
Valid from the 21 at 07:00 until the 22 at 12:00 UTC


210712Z 2107/2212 VRB03KT CAVOK
PROB40 2107/2109 0300 FG VV///
BECMG 2117/2120 34010KT BKN025
TEMPO 2120/2201 6000 -RADZ BKN012
PROB30
TEMPO 2122/2201 RA BKN008
BECMG 2201/2203 NSC
No reported NOTAMs for that airfield.



MET'MAP, your aeronautical weather chart ! - Copyright ORBIFLY December 2007 - Disclaimer

ORBIFLY MET'MAP TEAM :

Programming & Development : Alexandra Zaïnal
Concept & Development : Baudouin d'Aumeries
Co-Development & Prog : Marc-Olivier Méhu
Technical & hardware support : Manuel Goepfert

Contact : metmap@orbifly.com




SOURCES & CREDITS :

   NOAA